createdAt,value
2023-04-15T00:01:09.013Z,17.75
2023-04-15T00:03:36.608Z,15.45
2023-04-15T00:06:04.041Z,14.82
2023-04-15T00:08:31.933Z,17.08
2023-04-15T00:11:03.530Z,15.45
2023-04-15T00:13:31.062Z,15.77
2023-04-15T00:15:58.515Z,19.30
2023-04-15T00:18:25.897Z,14.70
2023-04-15T00:20:53.692Z,21.05
2023-04-15T00:23:20.798Z,12.70
2023-04-15T00:25:47.973Z,20.20
2023-04-15T00:28:15.157Z,15.10
2023-04-15T00:30:42.646Z,14.20
2023-04-15T00:33:10.160Z,20.17
2023-04-15T00:35:37.765Z,14.45
2023-04-15T00:38:06.800Z,19.25
2023-04-15T00:40:33.924Z,12.82
2023-04-15T00:43:01.061Z,17.90
2023-04-15T00:45:28.975Z,13.65
2023-04-15T00:47:57.201Z,16.05
2023-04-15T00:50:24.374Z,19.17
2023-04-15T00:52:52.225Z,17.10
2023-04-15T00:55:19.578Z,14.77
2023-04-15T00:57:47.301Z,15.15
2023-04-15T01:00:15.036Z,14.35
2023-04-15T01:02:42.431Z,17.25
2023-04-15T01:05:09.762Z,17.67
2023-04-15T01:07:37.351Z,18.30
2023-04-15T01:10:05.181Z,16.10
2023-04-15T01:12:34.635Z,17.70
2023-04-15T01:15:02.557Z,18.35
2023-04-15T01:17:29.807Z,20.02
2023-04-15T01:20:00.171Z,17.20
2023-04-15T01:22:29.040Z,19.13
2023-04-15T01:25:05.283Z,18.15
2023-04-15T01:27:33.538Z,16.52
2023-04-15T01:30:00.544Z,19.73
2023-04-15T01:32:27.706Z,19.17
2023-04-15T01:34:57.622Z,18.55
2023-04-15T01:37:25.535Z,21.80
2023-04-15T01:39:52.839Z,17.60
2023-04-15T01:42:22.757Z,14.88
2023-04-15T01:44:49.767Z,18.33
2023-04-15T01:47:17.112Z,19.42
2023-04-15T01:49:44.179Z,16.15
2023-04-15T01:52:11.263Z,15.75
2023-04-15T01:54:38.384Z,14.60
2023-04-15T01:57:05.870Z,13.55
2023-04-15T01:59:33.383Z,13.93
2023-04-15T02:02:00.906Z,19.83
2023-04-15T02:04:28.309Z,15.52
2023-04-15T02:06:55.317Z,16.63
2023-04-15T02:09:22.401Z,21.63
2023-04-15T02:11:49.619Z,16.35
2023-04-15T02:14:16.771Z,14.52
2023-04-15T02:16:43.799Z,12.40
2023-04-15T02:19:11.012Z,18.35
2023-04-15T02:21:38.234Z,15.45
2023-04-15T02:24:05.415Z,19.20
2023-04-15T02:26:33.421Z,14.50
2023-04-15T02:29:07.560Z,13.23
2023-04-15T02:31:37.367Z,14.20
2023-04-15T02:34:04.919Z,15.85
2023-04-15T02:36:32.228Z,16.20
2023-04-15T02:38:59.619Z,22.17
2023-04-15T02:41:28.780Z,12.55
2023-04-15T02:43:56.053Z,12.50
2023-04-15T02:46:23.433Z,17.80
2023-04-15T02:48:51.328Z,20.02
2023-04-15T02:51:20.494Z,15.98
2023-04-15T02:53:48.841Z,20.83
2023-04-15T02:56:17.556Z,14.02
2023-04-15T02:58:46.050Z,15.88
2023-04-15T03:01:13.899Z,14.70
2023-04-15T03:03:41.273Z,16.55
2023-04-15T03:06:09.272Z,16.75
2023-04-15T03:08:36.645Z,19.10
2023-04-15T03:11:04.125Z,15.27
2023-04-15T03:13:31.482Z,17.33
2023-04-15T03:15:58.593Z,14.70
2023-04-15T03:18:26.143Z,12.48
2023-04-15T03:20:53.263Z,18.40
2023-04-15T03:23:20.349Z,17.65
2023-04-15T03:25:47.664Z,16.30
2023-04-15T03:28:14.757Z,17.38
2023-04-15T03:30:42.083Z,17.20
2023-04-15T03:33:09.481Z,17.80
2023-04-15T03:35:36.606Z,21.90
2023-04-15T03:38:03.774Z,19.10
2023-04-15T03:40:30.997Z,14.82
2023-04-15T03:42:58.162Z,17.45
2023-04-15T03:45:26.008Z,15.60
2023-04-15T03:47:53.133Z,16.17
2023-04-15T03:50:20.320Z,15.98
2023-04-15T03:52:48.639Z,16.10
2023-04-15T03:55:16.854Z,15.48
2023-04-15T03:57:43.954Z,13.75
2023-04-15T04:00:11.225Z,17.63
2023-04-15T04:02:38.887Z,13.15
2023-04-15T04:05:06.549Z,14.05
2023-04-15T04:07:33.745Z,15.90
2023-04-15T04:10:01.135Z,14.60
2023-04-15T04:12:28.210Z,15.27
2023-04-15T04:14:55.257Z,15.48
2023-04-15T04:17:22.455Z,16.25
2023-04-15T04:19:49.569Z,13.95
2023-04-15T04:22:16.654Z,14.07
2023-04-15T04:24:43.707Z,19.73
2023-04-15T04:27:11.011Z,16.60
2023-04-15T04:29:38.002Z,16.02
2023-04-15T04:32:05.245Z,13.02
2023-04-15T04:34:32.814Z,13.82
2023-04-15T04:36:59.862Z,17.67
2023-04-15T04:39:26.970Z,15.63
2023-04-15T04:41:54.028Z,17.83
2023-04-15T04:44:21.166Z,13.73
2023-04-15T04:46:48.276Z,9.70
2023-04-15T04:49:15.302Z,15.15
2023-04-15T04:51:42.411Z,13.70
2023-04-15T04:54:09.997Z,18.08
2023-04-15T04:56:39.103Z,13.50
2023-04-15T04:59:07.333Z,12.50
2023-04-15T05:01:34.684Z,12.93
2023-04-15T05:04:01.985Z,14.77
2023-04-15T05:06:30.817Z,13.93
2023-04-15T05:08:58.059Z,14.20
2023-04-15T05:11:25.205Z,12.05
2023-04-15T05:13:52.260Z,18.33
2023-04-15T05:16:20.262Z,17.63
2023-04-15T05:18:47.804Z,20.05
2023-04-15T05:21:15.005Z,18.48
2023-04-15T05:23:42.136Z,13.65
2023-04-15T05:26:09.412Z,16.15
2023-04-15T05:28:39.091Z,20.08
2023-04-15T05:31:06.490Z,19.65
2023-04-15T05:33:33.854Z,12.20
2023-04-15T05:36:00.997Z,17.92
2023-04-15T05:38:28.013Z,13.65
2023-04-15T05:40:58.343Z,13.73
2023-04-15T05:43:25.401Z,16.58
2023-04-15T05:45:52.554Z,14.70
2023-04-15T05:48:20.018Z,17.95
2023-04-15T05:50:47.568Z,15.10
2023-04-15T05:53:14.666Z,16.60
2023-04-15T05:55:42.173Z,21.88
2023-04-15T05:58:09.251Z,19.63
2023-04-15T06:00:37.012Z,17.63
2023-04-15T06:03:04.925Z,19.40
2023-04-15T06:05:31.965Z,21.60
2023-04-15T06:07:59.343Z,21.13
2023-04-15T06:10:26.486Z,17.08
2023-04-15T06:12:53.835Z,15.73
2023-04-15T06:15:21.000Z,15.30
2023-04-15T06:17:48.158Z,15.75
2023-04-15T06:20:15.405Z,20.92
2023-04-15T06:22:42.424Z,20.88
2023-04-15T06:25:10.165Z,17.42
2023-04-15T06:27:38.237Z,19.35
2023-04-15T06:30:06.881Z,13.70
2023-04-15T06:32:34.028Z,19.55
2023-04-15T06:35:01.204Z,19.17
2023-04-15T06:37:32.102Z,24.95
2023-04-15T06:40:02.783Z,20.95
2023-04-15T06:42:29.845Z,17.50
2023-04-15T06:44:57.064Z,20.95
2023-04-15T06:47:24.157Z,25.85
2023-04-15T06:49:51.238Z,24.50
2023-04-15T06:52:18.751Z,22.17
2023-04-15T06:54:46.068Z,18.83
2023-04-15T06:57:13.324Z,25.67
2023-04-15T06:59:40.531Z,27.30
2023-04-15T07:02:12.762Z,30.05
2023-04-15T07:04:40.665Z,29.50
2023-04-15T07:07:08.472Z,28.15
2023-04-15T07:09:35.578Z,28.48
2023-04-15T07:12:03.134Z,28.30
2023-04-15T07:14:30.382Z,26.02
2023-04-15T07:16:57.906Z,22.63
2023-04-15T07:19:25.089Z,25.58
2023-04-15T07:21:52.208Z,30.75
2023-04-15T07:24:20.848Z,34.28
2023-04-15T07:26:47.934Z,27.42
2023-04-15T07:29:15.117Z,22.50
2023-04-15T07:31:42.596Z,29.33
2023-04-15T07:34:09.742Z,28.67
2023-04-15T07:36:37.191Z,19.60
2023-04-15T07:39:04.584Z,21.98
2023-04-15T07:41:32.045Z,27.63
2023-04-15T07:43:59.282Z,22.27
2023-04-15T07:46:27.701Z,11.25
2023-04-15T07:48:54.772Z,17.83
2023-04-15T07:51:22.319Z,16.65
2023-04-15T07:53:50.757Z,19.23
2023-04-15T07:56:17.958Z,27.17
2023-04-15T07:58:45.167Z,17.20
2023-04-15T08:01:12.812Z,18.38
2023-04-15T08:03:40.276Z,21.77
2023-04-15T08:06:07.602Z,21.00
2023-04-15T08:08:34.749Z,21.75
2023-04-15T08:11:02.118Z,25.05
2023-04-15T08:13:29.315Z,20.75
2023-04-15T08:16:18.064Z,23.63
2023-04-15T08:18:45.973Z,20.23
2023-04-15T08:21:13.575Z,28.00
2023-04-15T08:23:40.985Z,15.68
2023-04-15T08:26:08.858Z,19.58
2023-04-15T08:28:36.466Z,17.15
2023-04-15T08:31:04.339Z,19.13
2023-04-15T08:33:31.463Z,14.27
2023-04-15T08:35:58.750Z,19.52
2023-04-15T08:38:25.990Z,15.90
2023-04-15T08:40:53.066Z,18.40
2023-04-15T08:43:26.803Z,20.13
2023-04-15T08:45:53.938Z,20.10
2023-04-15T08:48:22.107Z,24.52
2023-04-15T08:50:49.360Z,15.27
2023-04-15T08:53:16.666Z,23.52
2023-04-15T08:55:46.255Z,14.27
2023-04-15T08:58:14.727Z,17.98
2023-04-15T09:00:42.425Z,15.23
2023-04-15T09:03:10.056Z,20.05
2023-04-15T09:05:38.292Z,27.35
2023-04-15T09:08:06.259Z,17.67
2023-04-15T09:10:34.403Z,23.77
2023-04-15T09:13:03.210Z,25.63
2023-04-15T09:15:33.262Z,20.10
2023-04-15T09:18:00.370Z,22.45
2023-04-15T09:20:27.902Z,27.73
2023-04-15T09:22:55.115Z,22.08
2023-04-15T09:25:22.142Z,28.08
2023-04-15T09:28:01.201Z,24.02
2023-04-15T09:30:29.905Z,24.02
2023-04-15T09:32:58.759Z,22.42
2023-04-15T09:35:28.406Z,27.45
2023-04-15T09:38:04.527Z,26.27
2023-04-15T09:40:33.134Z,22.50
2023-04-15T09:43:02.199Z,30.27
2023-04-15T09:45:30.200Z,33.95
2023-04-15T09:47:59.599Z,25.13
2023-04-15T09:50:30.169Z,32.83
2023-04-15T09:52:57.700Z,26.10
2023-04-15T09:55:24.819Z,31.30
2023-04-15T09:57:51.908Z,24.80
2023-04-15T10:00:19.215Z,24.75
2023-04-15T10:02:48.691Z,26.98
2023-04-15T10:05:18.257Z,21.98
2023-04-15T10:07:46.375Z,21.10
2023-04-15T10:10:15.213Z,21.75
2023-04-15T10:12:43.618Z,24.38
2023-04-15T10:15:16.774Z,29.48
2023-04-15T10:17:45.671Z,28.17
2023-04-15T10:20:14.859Z,24.83
2023-04-15T10:22:44.009Z,26.08
2023-04-15T10:25:12.232Z,26.42
2023-04-15T10:27:42.457Z,30.58
2023-04-15T10:30:09.802Z,25.58
2023-04-15T10:32:38.364Z,26.75
2023-04-15T10:35:06.731Z,24.08
2023-04-15T10:37:38.584Z,28.10
2023-04-15T10:40:27.515Z,24.23
2023-04-15T10:43:02.964Z,25.20
2023-04-15T10:45:38.016Z,24.23
2023-04-15T10:48:08.671Z,25.52
2023-04-15T10:50:38.007Z,25.80
2023-04-15T10:53:05.586Z,35.05
2023-04-15T10:55:34.639Z,22.50
2023-04-15T10:58:03.143Z,28.15
2023-04-15T11:00:32.516Z,21.23
2023-04-15T11:03:07.319Z,22.30
2023-04-15T11:05:43.222Z,22.30
2023-04-15T11:08:11.469Z,27.27
2023-04-15T11:10:38.491Z,24.17
2023-04-15T11:13:16.267Z,22.13
2023-04-15T11:15:47.454Z,22.60
2023-04-15T11:18:18.480Z,30.42
2023-04-15T11:20:54.760Z,30.67
2023-04-15T11:23:36.408Z,22.60
2023-04-15T11:26:07.152Z,23.42
2023-04-15T11:28:34.444Z,23.45
2023-04-15T11:31:10.978Z,19.48
2023-04-15T11:33:39.569Z,22.83
2023-04-15T11:36:07.128Z,25.52
2023-04-15T11:38:34.838Z,19.67
2023-04-15T11:41:01.961Z,24.70
2023-04-15T11:43:32.733Z,22.33
2023-04-15T11:46:02.462Z,23.50
2023-04-15T11:48:34.659Z,26.40
2023-04-15T11:51:04.186Z,20.00
2023-04-15T11:53:38.827Z,23.70
2023-04-15T11:56:06.489Z,26.65
2023-04-15T11:58:37.785Z,23.13
2023-04-15T12:01:06.669Z,21.45
2023-04-15T12:03:44.222Z,24.35
2023-04-15T12:06:22.175Z,26.17
2023-04-15T12:09:15.884Z,26.70
2023-04-15T12:11:55.982Z,17.90
2023-04-15T12:14:32.767Z,19.08
2023-04-15T12:17:07.323Z,23.98
2023-04-15T12:19:42.093Z,21.08
2023-04-15T12:22:18.316Z,31.10
2023-04-15T12:24:49.720Z,32.10
2023-04-15T12:27:17.895Z,27.52
2023-04-15T12:29:45.080Z,21.65
2023-04-15T12:32:22.182Z,20.70
2023-04-15T12:34:53.688Z,24.25
2023-04-15T12:37:21.329Z,26.90
2023-04-15T12:39:50.254Z,22.25
2023-04-15T12:42:18.543Z,26.73
2023-04-15T12:44:45.866Z,26.80
2023-04-15T12:47:13.678Z,23.45
2023-04-15T12:49:41.496Z,24.23
2023-04-15T12:52:08.815Z,20.38
2023-04-15T12:54:36.568Z,27.60
2023-04-15T12:57:06.911Z,25.08
2023-04-15T12:59:34.837Z,25.38
2023-04-15T13:02:03.112Z,22.75
2023-04-15T13:04:31.505Z,28.45
2023-04-15T13:06:59.115Z,29.05
2023-04-15T13:09:26.251Z,19.25
2023-04-15T13:11:54.712Z,21.55
2023-04-15T13:14:22.128Z,25.55
2023-04-15T13:16:49.277Z,23.52
2023-04-15T13:19:16.626Z,25.67
2023-04-15T13:21:43.704Z,29.13
2023-04-15T13:24:10.891Z,29.00
2023-04-15T13:26:38.204Z,24.40
2023-04-15T13:29:05.528Z,33.42
2023-04-15T13:31:32.730Z,25.52
2023-04-15T13:33:59.863Z,25.73
2023-04-15T13:36:27.619Z,29.48
2023-04-15T13:38:54.886Z,17.00
2023-04-15T13:41:22.213Z,28.35
2023-04-15T13:43:49.364Z,22.77
2023-04-15T13:46:16.950Z,20.63
2023-04-15T13:48:44.072Z,20.38
2023-04-15T13:51:11.168Z,22.33
2023-04-15T13:53:39.593Z,24.25
2023-04-15T13:56:08.846Z,31.83
2023-04-15T13:58:37.135Z,22.50
2023-04-15T14:01:06.237Z,28.17
2023-04-15T14:03:36.792Z,29.67
2023-04-15T14:06:04.800Z,24.15
2023-04-15T14:08:32.002Z,23.60
2023-04-15T14:10:59.138Z,23.25
2023-04-15T14:13:26.245Z,26.30
2023-04-15T14:15:53.360Z,29.83
2023-04-15T14:18:20.648Z,25.33
2023-04-15T14:20:47.734Z,27.35
2023-04-15T14:23:14.787Z,23.73
2023-04-15T14:25:41.944Z,21.42
2023-04-15T14:28:09.006Z,26.55
2023-04-15T14:30:36.268Z,26.15
2023-04-15T14:33:04.105Z,22.20
2023-04-15T14:35:31.500Z,22.75
2023-04-15T14:37:58.706Z,22.90
2023-04-15T14:40:26.008Z,21.80
2023-04-15T14:42:53.091Z,21.83
2023-04-15T14:45:20.231Z,26.95
2023-04-15T14:47:47.578Z,23.27
2023-04-15T14:50:14.732Z,23.77
2023-04-15T14:52:41.862Z,27.08
2023-04-15T14:55:13.540Z,26.90
2023-04-15T14:57:42.681Z,24.35
2023-04-15T15:00:14.509Z,21.90
2023-04-15T15:02:42.712Z,22.20
2023-04-15T15:05:12.326Z,22.60
2023-04-15T15:07:41.154Z,25.33
2023-04-15T15:10:08.864Z,22.58
2023-04-15T15:12:36.202Z,19.65
2023-04-15T15:15:12.404Z,22.83
2023-04-15T15:17:43.279Z,22.08
2023-04-15T15:20:10.853Z,23.75
2023-04-15T15:22:37.900Z,20.73
2023-04-15T15:25:05.512Z,23.52
2023-04-15T15:27:32.753Z,26.58
2023-04-15T15:30:00.078Z,25.02
2023-04-15T15:32:27.375Z,26.17
2023-04-15T15:34:54.477Z,29.00
2023-04-15T15:37:21.548Z,29.35
2023-04-15T15:39:50.993Z,23.55
2023-04-15T15:42:19.944Z,23.73
2023-04-15T15:44:49.420Z,24.98
2023-04-15T15:47:17.539Z,21.48
2023-04-15T15:49:44.843Z,24.83
2023-04-15T15:52:12.111Z,22.15
2023-04-15T15:54:40.960Z,24.00
2023-04-15T15:57:08.365Z,21.27
2023-04-15T15:59:35.439Z,22.58
2023-04-15T16:02:03.089Z,22.52
2023-04-15T16:04:30.643Z,20.58
2023-04-15T16:06:57.848Z,26.25
2023-04-15T16:09:24.986Z,22.85
2023-04-15T16:11:52.519Z,24.38
2023-04-15T16:14:19.888Z,17.95
2023-04-15T16:16:47.083Z,21.00
2023-04-15T16:19:14.272Z,24.05
2023-04-15T16:21:41.441Z,22.60
2023-04-15T16:24:08.573Z,21.27
2023-04-15T16:26:36.018Z,20.70
2023-04-15T16:29:03.670Z,25.73
2023-04-15T16:31:31.407Z,21.08
2023-04-15T16:33:59.304Z,18.90
2023-04-15T16:36:26.776Z,18.67
2023-04-15T16:38:53.878Z,21.30
2023-04-15T16:41:21.664Z,20.88
2023-04-15T16:43:48.695Z,24.88
2023-04-15T16:46:16.024Z,21.60
2023-04-15T16:48:43.194Z,20.42
2023-04-15T16:51:10.280Z,28.17
2023-04-15T16:53:37.529Z,26.58
2023-04-15T16:56:04.767Z,24.60
2023-04-15T16:58:32.182Z,23.33
2023-04-15T17:00:59.560Z,27.83
2023-04-15T17:03:27.052Z,22.27
2023-04-15T17:05:54.213Z,20.50
2023-04-15T17:08:21.275Z,23.90
2023-04-15T17:10:48.548Z,25.60
2023-04-15T17:13:15.604Z,28.98
2023-04-15T17:15:42.763Z,31.23
2023-04-15T17:18:10.933Z,21.73
2023-04-15T17:20:39.443Z,22.27
2023-04-15T17:23:06.640Z,28.35
2023-04-15T17:25:33.876Z,19.73
2023-04-15T17:28:01.655Z,27.05
2023-04-15T17:30:28.840Z,22.70
2023-04-15T17:32:56.348Z,18.38
2023-04-15T17:35:23.675Z,22.10
2023-04-15T17:37:51.165Z,27.10
2023-04-15T17:40:18.343Z,23.25
2023-04-15T17:42:45.407Z,20.00
2023-04-15T17:45:12.496Z,21.27
2023-04-15T17:47:39.610Z,21.10
2023-04-15T17:50:07.804Z,21.02
2023-04-15T17:52:34.950Z,23.40
2023-04-15T17:55:02.741Z,19.42
2023-04-15T17:57:29.816Z,25.88
2023-04-15T17:59:56.885Z,29.65
2023-04-15T18:02:24.579Z,26.00
2023-04-15T18:04:51.976Z,23.02
2023-04-15T18:07:19.262Z,23.70
2023-04-15T18:09:46.565Z,27.77
2023-04-15T18:12:13.872Z,24.65
2023-04-15T18:14:41.187Z,18.80
2023-04-15T18:17:08.389Z,29.63
2023-04-15T18:19:35.503Z,22.38
2023-04-15T18:22:04.321Z,18.88
2023-04-15T18:24:31.865Z,25.38
2023-04-15T18:26:59.490Z,27.50
2023-04-15T18:29:26.575Z,24.67
2023-04-15T18:31:53.899Z,23.88
2023-04-15T18:34:21.051Z,27.40
2023-04-15T18:36:48.152Z,22.50
2023-04-15T18:39:15.936Z,28.40
2023-04-15T18:41:43.025Z,26.58
2023-04-15T18:44:10.185Z,28.15
2023-04-15T18:46:37.288Z,18.33
2023-04-15T18:49:04.683Z,27.00
2023-04-15T18:51:32.922Z,33.13
2023-04-15T18:53:59.989Z,28.98
2023-04-15T18:56:27.050Z,25.90
2023-04-15T18:59:21.728Z,23.73
2023-04-15T19:01:41.418Z,34.28
2023-04-15T19:04:10.398Z,31.58
2023-04-15T19:06:37.854Z,27.60
2023-04-15T19:09:05.078Z,27.35
2023-04-15T19:11:32.288Z,23.70
2023-04-15T19:13:59.338Z,31.50
2023-04-15T19:16:26.423Z,25.67
2023-04-15T19:18:53.817Z,27.05
2023-04-15T19:21:20.974Z,27.90
2023-04-15T19:23:48.541Z,27.05
2023-04-15T19:26:15.806Z,25.98
2023-04-15T19:28:42.848Z,31.52
2023-04-15T19:31:10.114Z,25.15
2023-04-15T19:33:37.226Z,29.80
2023-04-15T19:36:06.826Z,22.48
2023-04-15T19:38:38.097Z,22.88
2023-04-15T19:41:05.157Z,29.52
2023-04-15T19:43:33.255Z,29.17
2023-04-15T19:46:01.160Z,30.92
2023-04-15T19:48:28.650Z,23.05
2023-04-15T19:50:56.984Z,28.25
2023-04-15T19:53:25.780Z,25.60
2023-04-15T19:55:53.124Z,29.02
2023-04-15T19:58:20.133Z,26.58
2023-04-15T20:00:47.261Z,29.33
2023-04-15T20:03:14.616Z,29.00
2023-04-15T20:05:41.911Z,29.30
2023-04-15T20:08:09.122Z,23.85
2023-04-15T20:10:37.413Z,28.88
2023-04-15T20:13:04.579Z,22.75
2023-04-15T20:15:32.841Z,28.27
2023-04-15T20:17:59.975Z,30.50
2023-04-15T20:20:27.153Z,28.85
2023-04-15T20:22:54.199Z,29.38
2023-04-15T20:25:21.505Z,25.23
2023-04-15T20:27:48.660Z,24.15
2023-04-15T20:30:15.987Z,28.13
2023-04-15T20:32:42.993Z,26.95
2023-04-15T20:35:10.266Z,20.80
2023-04-15T20:37:38.275Z,31.77
2023-04-15T20:40:05.800Z,33.67
2023-04-15T20:42:36.791Z,30.75
2023-04-15T20:45:04.235Z,29.17
2023-04-15T20:47:31.563Z,20.48
2023-04-15T20:49:58.607Z,33.10
2023-04-15T20:52:25.654Z,38.67
2023-04-15T20:54:52.780Z,29.50
2023-04-15T20:57:20.615Z,32.58
2023-04-15T20:59:47.772Z,28.90
2023-04-15T21:02:15.029Z,31.20
2023-04-15T21:04:42.244Z,28.15
2023-04-15T21:07:10.363Z,30.17
2023-04-15T21:09:41.568Z,26.20
2023-04-15T21:12:09.273Z,24.35
2023-04-15T21:14:37.291Z,27.17
2023-04-15T21:17:10.021Z,29.13
2023-04-15T21:19:38.039Z,27.50
2023-04-15T21:22:05.288Z,24.48
2023-04-15T21:24:33.160Z,25.27
2023-04-15T21:27:00.302Z,20.17
2023-04-15T21:29:27.539Z,24.38
2023-04-15T21:31:55.007Z,22.30
2023-04-15T21:34:22.005Z,23.85
2023-04-15T21:36:49.049Z,18.65
2023-04-15T21:39:16.216Z,24.80
2023-04-15T21:41:43.459Z,18.00
2023-04-15T21:44:12.111Z,20.20
2023-04-15T21:46:40.392Z,22.48
2023-04-15T21:49:07.874Z,22.85
2023-04-15T21:51:35.126Z,20.30
2023-04-15T21:54:02.350Z,24.23
2023-04-15T21:56:29.429Z,19.52
2023-04-15T21:58:57.890Z,23.33
2023-04-15T22:01:25.328Z,19.35
2023-04-15T22:03:52.903Z,20.00
2023-04-15T22:06:20.168Z,25.33
2023-04-15T22:09:11.334Z,18.95
2023-04-15T22:11:34.355Z,17.05
2023-04-15T22:14:01.494Z,28.08
2023-04-15T22:16:28.993Z,21.67
2023-04-15T22:18:56.297Z,24.95
2023-04-15T22:21:24.450Z,23.08
2023-04-15T22:23:51.987Z,21.10
2023-04-15T22:26:19.269Z,21.23
2023-04-15T22:28:46.302Z,27.63
2023-04-15T22:31:15.032Z,15.43
2023-04-15T22:33:42.253Z,22.42
2023-04-15T22:36:09.354Z,21.20
2023-04-15T22:38:36.482Z,20.92
2023-04-15T22:41:03.665Z,13.68
2023-04-15T22:43:30.719Z,25.70
2023-04-15T22:45:57.869Z,22.42
2023-04-15T22:48:24.931Z,24.05
2023-04-15T22:50:52.097Z,18.35
2023-04-15T22:53:19.510Z,21.60
2023-04-15T22:55:49.876Z,15.30
2023-04-15T22:58:18.561Z,19.48
2023-04-15T23:00:46.201Z,18.40
2023-04-15T23:03:13.491Z,17.50
2023-04-15T23:05:41.534Z,20.30
2023-04-15T23:08:08.936Z,18.98
2023-04-15T23:10:36.098Z,22.50
2023-04-15T23:13:03.506Z,24.23
2023-04-15T23:15:31.452Z,16.48
2023-04-15T23:18:00.593Z,19.75
2023-04-15T23:20:28.089Z,27.50
2023-04-15T23:22:55.089Z,26.77
2023-04-15T23:25:22.975Z,22.55
2023-04-15T23:27:50.245Z,20.13
2023-04-15T23:30:17.371Z,22.98
2023-04-15T23:32:44.521Z,21.98
2023-04-15T23:35:11.679Z,22.33
2023-04-15T23:37:38.755Z,19.75
2023-04-15T23:40:06.645Z,16.52
2023-04-15T23:42:33.747Z,24.95
2023-04-15T23:45:00.767Z,16.50
2023-04-15T23:47:27.856Z,23.83
2023-04-15T23:49:54.944Z,19.00
2023-04-15T23:52:21.986Z,17.38
2023-04-15T23:54:49.019Z,18.80
2023-04-15T23:57:16.381Z,20.00
2023-04-15T23:59:43.397Z,19.70
